createdAt,value
2018-11-20T00:00:11.620Z,0.00
2018-11-20T00:01:11.797Z,0.00
2018-11-20T00:02:11.988Z,0.00
2018-11-20T00:03:12.173Z,0.00
2018-11-20T00:04:12.366Z,0.00
2018-11-20T00:05:12.575Z,0.00
2018-11-20T00:06:12.735Z,0.00
2018-11-20T00:07:12.916Z,0.00
2018-11-20T00:08:13.093Z,0.00
2018-11-20T00:09:13.277Z,0.00
2018-11-20T00:10:13.472Z,0.00
2018-11-20T00:11:13.651Z,0.00
2018-11-20T00:12:13.835Z,0.00
2018-11-20T00:13:14.013Z,0.00
2018-11-20T00:14:14.206Z,0.00
2018-11-20T00:15:14.403Z,0.00
2018-11-20T00:16:14.579Z,0.00
2018-11-20T00:17:14.764Z,0.00
2018-11-20T00:18:14.941Z,0.00
2018-11-20T00:19:15.131Z,0.00
2018-11-20T00:20:15.316Z,0.00
2018-11-20T00:21:15.495Z,0.00
2018-11-20T00:22:15.680Z,0.00
2018-11-20T00:23:15.860Z,0.00
2018-11-20T00:24:16.052Z,0.00
2018-11-20T00:25:16.235Z,0.00
2018-11-20T00:26:16.416Z,0.00
2018-11-20T00:27:16.595Z,0.00
2018-11-20T00:28:16.780Z,0.00
2018-11-20T00:29:16.983Z,0.00
2018-11-20T00:30:17.164Z,0.00
2018-11-20T00:31:17.351Z,0.00
2018-11-20T00:32:17.530Z,0.00
2018-11-20T00:33:17.717Z,0.00
2018-11-20T00:34:17.902Z,0.00
2018-11-20T00:35:18.084Z,0.00
2018-11-20T00:36:18.268Z,0.00
2018-11-20T00:37:18.473Z,0.00
2018-11-20T00:38:18.649Z,0.00
2018-11-20T00:39:18.829Z,0.00
2018-11-20T00:40:19.013Z,0.00
2018-11-20T00:41:19.196Z,0.00
2018-11-20T00:42:19.415Z,0.00
2018-11-20T00:43:19.565Z,0.00
2018-11-20T00:44:19.764Z,0.00
2018-11-20T00:45:19.941Z,0.00
2018-11-20T00:46:20.134Z,0.00
2018-11-20T00:47:20.314Z,0.00
2018-11-20T00:48:20.498Z,0.00
2018-11-20T00:49:20.690Z,0.00
2018-11-20T00:50:20.870Z,0.00
2018-11-20T00:51:21.059Z,0.00
2018-11-20T00:52:21.243Z,0.00
2018-11-20T00:53:21.431Z,0.00
2018-11-20T00:54:21.613Z,0.00
2018-11-20T00:55:21.800Z,0.00
2018-11-20T00:56:21.980Z,0.00
2018-11-20T00:57:22.157Z,0.00
2018-11-20T00:58:22.341Z,0.00
2018-11-20T00:59:22.520Z,0.00
2018-11-20T01:00:22.701Z,0.00
2018-11-20T01:01:22.886Z,0.00
2018-11-20T01:02:23.071Z,0.00
2018-11-20T01:03:23.253Z,0.00
2018-11-20T01:04:23.439Z,0.00
2018-11-20T01:05:23.630Z,0.00
2018-11-20T01:06:23.804Z,0.00
2018-11-20T01:07:23.989Z,0.00
2018-11-20T01:08:24.182Z,0.00
2018-11-20T01:09:24.364Z,0.00
2018-11-20T01:10:24.545Z,0.00
2018-11-20T01:11:24.745Z,0.00
2018-11-20T01:12:24.918Z,0.00
2018-11-20T01:13:25.088Z,0.00
2018-11-20T01:14:25.266Z,0.00
2018-11-20T01:15:25.443Z,0.00
2018-11-20T01:16:25.624Z,0.00
2018-11-20T01:17:25.819Z,0.00
2018-11-20T01:18:25.983Z,0.00
2018-11-20T01:19:26.156Z,0.00
2018-11-20T01:20:26.337Z,0.00
2018-11-20T01:21:26.519Z,0.00
2018-11-20T01:22:26.699Z,0.00
2018-11-20T01:23:26.880Z,0.00
2018-11-20T01:24:27.058Z,0.00
2018-11-20T01:25:27.229Z,0.00
2018-11-20T01:26:27.417Z,0.00
2018-11-20T01:27:27.596Z,0.00
2018-11-20T01:28:27.771Z,0.00
2018-11-20T01:29:27.952Z,0.00
2018-11-20T01:30:28.133Z,0.00
2018-11-20T01:31:28.324Z,0.00
2018-11-20T01:32:28.491Z,0.00
2018-11-20T01:33:28.672Z,0.00
2018-11-20T01:34:28.845Z,0.00
2018-11-20T01:35:29.026Z,0.00
2018-11-20T01:36:29.203Z,0.00
2018-11-20T01:37:29.379Z,0.00
2018-11-20T01:38:29.559Z,0.00
2018-11-20T01:39:29.740Z,0.00
2018-11-20T01:40:29.921Z,0.00
2018-11-20T01:41:30.150Z,0.00
2018-11-20T01:42:30.279Z,0.00
2018-11-20T01:43:30.456Z,0.00
2018-11-20T01:44:30.635Z,0.00
2018-11-20T01:45:30.815Z,0.00
2018-11-20T01:46:30.990Z,0.00
2018-11-20T01:47:31.167Z,0.00
2018-11-20T01:48:31.353Z,0.00
2018-11-20T01:49:31.526Z,0.00
2018-11-20T01:50:31.699Z,0.00
2018-11-20T01:51:31.950Z,0.00
2018-11-20T01:52:32.056Z,0.00
2018-11-20T01:53:32.233Z,0.00
2018-11-20T01:54:32.422Z,0.00
2018-11-20T01:55:32.591Z,0.00
2018-11-20T01:56:32.768Z,0.00
2018-11-20T01:57:32.949Z,0.00
2018-11-20T01:58:33.123Z,0.00
2018-11-20T01:59:33.296Z,0.00
2018-11-20T02:00:33.514Z,0.00
2018-11-20T02:01:33.658Z,0.00
2018-11-20T02:02:33.843Z,0.00
2018-11-20T02:03:34.021Z,0.00
2018-11-20T02:04:34.200Z,0.00
2018-11-20T02:05:34.387Z,0.00
2018-11-20T02:06:34.552Z,0.00
2018-11-20T02:07:34.730Z,0.00
2018-11-20T02:08:34.904Z,0.00
2018-11-20T02:09:35.087Z,0.00
2018-11-20T02:10:35.276Z,0.00
2018-11-20T02:11:35.437Z,0.00
2018-11-20T02:12:35.610Z,0.00
2018-11-20T02:13:35.792Z,0.00
2018-11-20T02:14:35.965Z,0.00
2018-11-20T02:15:36.152Z,0.00
2018-11-20T02:16:36.330Z,0.00
2018-11-20T02:17:36.502Z,0.00
2018-11-20T02:18:36.683Z,0.00
2018-11-20T02:19:36.861Z,0.00
2018-11-20T02:20:37.049Z,0.00
2018-11-20T02:21:37.225Z,0.00
2018-11-20T02:22:37.403Z,0.00
2018-11-20T02:23:37.588Z,0.00
2018-11-20T02:24:37.761Z,0.00
2018-11-20T02:25:37.943Z,0.00
2018-11-20T02:26:38.119Z,0.00
2018-11-20T02:27:38.305Z,0.00
2018-11-20T02:28:38.482Z,0.00
2018-11-20T02:29:38.661Z,0.00
2018-11-20T02:30:38.835Z,0.00
2018-11-20T02:31:39.016Z,0.00
2018-11-20T02:32:39.194Z,0.00
2018-11-20T02:33:39.368Z,0.00
2018-11-20T02:34:39.548Z,0.00
2018-11-20T02:35:39.726Z,0.00
2018-11-20T02:36:39.898Z,0.00
2018-11-20T02:37:40.075Z,0.00
2018-11-20T02:38:40.265Z,0.00
2018-11-20T02:39:40.431Z,0.00
2018-11-20T02:40:40.618Z,0.00
2018-11-20T02:41:40.796Z,0.00
2018-11-20T02:42:40.976Z,0.00
2018-11-20T02:43:41.162Z,0.00
2018-11-20T02:44:41.332Z,0.00
2018-11-20T02:45:41.512Z,0.00
2018-11-20T02:46:41.693Z,0.00
2018-11-20T02:47:41.869Z,0.00
2018-11-20T02:48:42.049Z,0.00
2018-11-20T02:49:42.227Z,0.00
2018-11-20T02:50:42.404Z,0.00
2018-11-20T02:51:42.599Z,0.00
2018-11-20T02:52:42.778Z,0.00
2018-11-20T02:53:42.954Z,0.00
2018-11-20T02:54:43.769Z,0.00
2018-11-20T02:55:43.303Z,0.00
2018-11-20T02:56:43.485Z,0.00
2018-11-20T02:57:43.662Z,0.00
2018-11-20T02:58:43.845Z,0.00
2018-11-20T02:59:44.026Z,0.00
2018-11-20T03:00:44.206Z,0.00
2018-11-20T03:01:44.385Z,0.00
2018-11-20T03:02:44.576Z,0.00
2018-11-20T03:03:44.900Z,0.00
2018-11-20T03:04:44.940Z,0.00
2018-11-20T03:05:45.123Z,0.00
2018-11-20T03:06:45.300Z,0.00
2018-11-20T03:07:45.475Z,0.00
2018-11-20T03:08:45.654Z,0.00
2018-11-20T03:09:45.830Z,0.00
2018-11-20T03:10:46.011Z,0.00
2018-11-20T03:11:46.192Z,0.00
2018-11-20T03:12:46.374Z,0.00
2018-11-20T03:13:46.550Z,0.00
2018-11-20T03:14:46.732Z,0.00
2018-11-20T03:15:46.909Z,0.00
2018-11-20T03:16:47.091Z,0.00
2018-11-20T03:17:47.269Z,0.00
2018-11-20T03:18:47.446Z,0.00
2018-11-20T03:19:47.623Z,0.00
2018-11-20T03:20:47.798Z,0.00
2018-11-20T03:21:47.985Z,0.00
2018-11-20T03:22:48.167Z,0.00
2018-11-20T03:23:48.344Z,0.00
2018-11-20T03:24:48.529Z,0.00
2018-11-20T03:25:48.708Z,0.00
2018-11-20T03:26:48.890Z,0.00
2018-11-20T03:27:49.061Z,0.00
2018-11-20T03:28:49.240Z,0.00
2018-11-20T03:29:49.418Z,0.00
2018-11-20T03:30:49.601Z,0.00
2018-11-20T03:31:49.776Z,0.00
2018-11-20T03:32:49.959Z,0.00
2018-11-20T03:33:50.142Z,0.00
2018-11-20T03:34:50.317Z,0.00
2018-11-20T03:35:50.497Z,0.00
2018-11-20T03:36:50.683Z,0.00
2018-11-20T03:37:50.861Z,0.00
2018-11-20T03:38:51.040Z,0.00
2018-11-20T03:39:51.226Z,0.00
2018-11-20T03:40:51.403Z,0.00
2018-11-20T03:41:51.583Z,0.00
2018-11-20T03:42:51.756Z,0.00
2018-11-20T03:43:51.940Z,0.00
2018-11-20T03:44:52.120Z,0.00
2018-11-20T03:45:52.305Z,0.00
2018-11-20T03:46:52.490Z,0.00
2018-11-20T03:47:52.730Z,0.00
2018-11-20T03:48:52.841Z,0.00
2018-11-20T03:49:53.020Z,0.00
2018-11-20T03:50:53.197Z,0.00
2018-11-20T03:51:53.378Z,0.00
2018-11-20T03:52:53.559Z,0.00
2018-11-20T03:53:53.735Z,0.00
2018-11-20T03:54:53.912Z,0.00
2018-11-20T03:55:54.087Z,0.00
2018-11-20T03:56:54.269Z,0.00
2018-11-20T03:57:54.445Z,0.00
2018-11-20T03:58:54.620Z,0.00
2018-11-20T03:59:54.801Z,0.00
2018-11-20T04:00:54.977Z,0.00
2018-11-20T04:01:55.158Z,0.00
2018-11-20T04:02:55.344Z,0.00
2018-11-20T04:03:55.524Z,0.00
2018-11-20T04:04:55.704Z,0.00
2018-11-20T04:05:55.888Z,0.00
2018-11-20T04:06:56.074Z,0.00
2018-11-20T04:07:56.251Z,0.00
2018-11-20T04:08:56.430Z,0.00
2018-11-20T04:09:56.606Z,0.00
2018-11-20T04:10:56.786Z,0.00
2018-11-20T04:11:56.967Z,0.00
2018-11-20T04:12:57.146Z,0.00
2018-11-20T04:13:57.326Z,0.00
2018-11-20T04:14:57.510Z,0.00
2018-11-20T04:15:57.705Z,0.00
2018-11-20T04:16:57.876Z,0.00
2018-11-20T04:17:58.099Z,0.00
2018-11-20T04:18:58.242Z,0.00
2018-11-20T04:19:58.413Z,0.00
2018-11-20T04:20:58.597Z,0.00
2018-11-20T04:21:58.774Z,0.00
2018-11-20T04:22:58.950Z,0.00
2018-11-20T04:23:59.130Z,0.00
2018-11-20T04:24:59.308Z,0.00
2018-11-20T04:25:59.491Z,0.00
2018-11-20T04:26:59.668Z,0.00
2018-11-20T04:27:59.846Z,0.00
2018-11-20T04:29:00.029Z,0.00
2018-11-20T04:30:00.208Z,0.00
2018-11-20T04:31:00.393Z,0.00
2018-11-20T04:32:00.578Z,0.00
2018-11-20T04:33:00.788Z,0.00
2018-11-20T04:34:00.949Z,0.00
2018-11-20T04:35:01.130Z,0.00
2018-11-20T04:36:01.316Z,0.00
2018-11-20T04:37:01.496Z,0.00
2018-11-20T04:38:01.676Z,0.00
2018-11-20T04:39:01.851Z,0.00
2018-11-20T04:40:02.044Z,0.00
2018-11-20T04:41:02.230Z,0.00
2018-11-20T04:42:02.401Z,0.00
2018-11-20T04:43:02.582Z,0.00
2018-11-20T04:44:02.752Z,0.00
2018-11-20T04:45:02.925Z,0.00
2018-11-20T04:46:03.120Z,0.00
2018-11-20T04:47:03.286Z,0.00
2018-11-20T04:48:03.462Z,0.00
2018-11-20T04:49:03.643Z,0.00
2018-11-20T04:50:03.896Z,0.00
2018-11-20T04:51:04.009Z,0.00
2018-11-20T04:52:04.188Z,0.00
2018-11-20T04:53:04.366Z,0.00
2018-11-20T04:54:04.542Z,0.00
2018-11-20T04:55:04.717Z,0.00
2018-11-20T04:56:04.900Z,0.00
2018-11-20T04:57:05.086Z,0.00
2018-11-20T04:58:05.269Z,0.00
2018-11-20T04:59:05.462Z,0.00
2018-11-20T05:00:05.629Z,0.00
2018-11-20T05:01:05.823Z,0.00
2018-11-20T05:02:06.001Z,0.00
2018-11-20T05:03:06.181Z,0.00
2018-11-20T05:04:06.380Z,0.00
2018-11-20T05:05:06.559Z,0.00
2018-11-20T05:06:06.743Z,0.00
2018-11-20T05:07:06.921Z,0.00
2018-11-20T05:08:07.103Z,0.00
2018-11-20T05:09:07.279Z,0.00
2018-11-20T05:10:07.458Z,0.00
2018-11-20T05:11:07.636Z,0.00
2018-11-20T05:12:07.822Z,0.00
2018-11-20T05:13:08.031Z,0.00
2018-11-20T05:14:08.199Z,0.00
2018-11-20T05:15:08.380Z,0.00
2018-11-20T05:16:08.557Z,0.00
2018-11-20T05:17:08.746Z,0.00
2018-11-20T05:18:08.928Z,0.00
2018-11-20T05:19:09.106Z,0.00
2018-11-20T05:20:09.285Z,0.00
2018-11-20T05:21:09.474Z,0.00
2018-11-20T05:22:09.670Z,0.00
2018-11-20T05:23:09.833Z,0.00
2018-11-20T05:24:10.022Z,0.00
2018-11-20T05:25:10.202Z,0.00
2018-11-20T05:26:10.371Z,0.00
2018-11-20T05:27:10.569Z,0.00
2018-11-20T05:28:10.816Z,0.00
2018-11-20T05:29:10.929Z,0.00
2018-11-20T05:30:11.107Z,0.00
2018-11-20T05:31:11.347Z,0.00
2018-11-20T05:32:11.474Z,0.00
2018-11-20T05:33:11.662Z,0.00
2018-11-20T05:34:11.831Z,0.00
2018-11-20T05:35:12.010Z,0.00
2018-11-20T05:36:12.192Z,0.00
2018-11-20T05:37:12.368Z,0.00
2018-11-20T05:38:12.551Z,0.00
2018-11-20T05:39:12.736Z,0.00
2018-11-20T05:40:12.965Z,0.00
2018-11-20T05:41:13.093Z,0.00
2018-11-20T05:42:13.272Z,0.00
2018-11-20T05:43:13.453Z,0.00
2018-11-20T05:44:13.629Z,0.00
2018-11-20T05:45:13.810Z,0.00
2018-11-20T05:46:13.992Z,0.00
2018-11-20T05:47:14.171Z,0.00
2018-11-20T05:48:14.344Z,0.00
2018-11-20T05:49:14.514Z,0.00
2018-11-20T05:50:14.703Z,0.00
2018-11-20T05:51:14.881Z,0.00
2018-11-20T05:52:15.063Z,0.00
2018-11-20T05:53:15.238Z,0.00
2018-11-20T05:54:15.425Z,0.00
2018-11-20T05:55:15.603Z,0.00
2018-11-20T05:56:15.790Z,0.00
2018-11-20T05:57:15.967Z,0.00
2018-11-20T05:58:16.150Z,0.00
2018-11-20T05:59:16.320Z,0.00
2018-11-20T06:00:16.502Z,0.00
2018-11-20T06:01:16.680Z,0.00
2018-11-20T06:02:16.862Z,0.00
2018-11-20T06:03:17.036Z,0.00
2018-11-20T06:04:17.214Z,0.00
2018-11-20T06:05:17.393Z,0.00
2018-11-20T06:06:17.574Z,0.00
2018-11-20T06:07:17.750Z,0.00
2018-11-20T06:08:17.929Z,0.00
2018-11-20T06:09:18.108Z,0.00
2018-11-20T06:10:18.291Z,0.00
2018-11-20T06:11:18.476Z,0.00
2018-11-20T06:12:18.656Z,0.00
2018-11-20T06:13:18.835Z,0.00
2018-11-20T06:14:19.013Z,0.00
2018-11-20T06:15:19.201Z,0.00
2018-11-20T06:16:19.385Z,0.00
2018-11-20T06:17:19.549Z,0.00
2018-11-20T06:18:19.740Z,0.00
2018-11-20T06:19:19.915Z,0.00
2018-11-20T06:20:20.098Z,0.00
2018-11-20T06:21:20.276Z,0.00
2018-11-20T06:22:20.458Z,0.00
2018-11-20T06:23:20.649Z,0.00
2018-11-20T06:24:20.838Z,0.00
2018-11-20T06:25:21.029Z,0.00
2018-11-20T06:26:21.208Z,0.00
2018-11-20T06:27:21.382Z,0.00
2018-11-20T06:28:21.563Z,0.00
2018-11-20T06:29:21.846Z,0.00
2018-11-20T06:30:21.925Z,0.00
2018-11-20T06:31:22.100Z,0.00
2018-11-20T06:32:22.280Z,0.00
2018-11-20T06:33:22.456Z,0.00
2018-11-20T06:34:22.653Z,0.00
2018-11-20T06:35:22.815Z,0.00
2018-11-20T06:36:22.991Z,0.00
2018-11-20T06:37:23.172Z,0.00
2018-11-20T06:38:23.353Z,0.00
2018-11-20T06:39:23.530Z,0.00
2018-11-20T06:40:23.706Z,0.00
2018-11-20T06:41:23.955Z,0.00
2018-11-20T06:42:24.073Z,0.00
2018-11-20T06:43:24.259Z,0.00
2018-11-20T06:44:24.441Z,0.00
2018-11-20T06:45:24.628Z,0.00
2018-11-20T06:46:24.812Z,0.00
2018-11-20T06:47:25.072Z,0.00
2018-11-20T06:48:25.169Z,0.00
2018-11-20T06:49:25.350Z,0.00
2018-11-20T06:50:25.531Z,0.00
2018-11-20T06:51:25.712Z,0.00
2018-11-20T06:52:25.893Z,0.00
2018-11-20T06:53:26.127Z,0.00
2018-11-20T06:54:26.250Z,0.00
2018-11-20T06:55:26.429Z,0.00
2018-11-20T06:56:26.612Z,0.00
2018-11-20T06:57:26.813Z,0.00
2018-11-20T06:58:26.972Z,0.00
2018-11-20T06:59:27.153Z,0.00
2018-11-20T07:00:27.334Z,0.00
2018-11-20T07:01:27.576Z,0.00
2018-11-20T07:02:27.730Z,5.63
2018-11-20T07:03:27.911Z,5.63
2018-11-20T07:04:28.090Z,5.63
2018-11-20T07:05:28.265Z,5.63
2018-11-20T07:06:28.446Z,5.63
2018-11-20T07:07:28.776Z,5.63
2018-11-20T07:08:28.894Z,5.63
2018-11-20T07:09:28.974Z,5.63
2018-11-20T07:10:29.161Z,11.25
2018-11-20T07:11:29.330Z,11.25
2018-11-20T07:12:29.515Z,11.25
2018-11-20T07:13:29.693Z,11.25
2018-11-20T07:14:29.874Z,11.25
2018-11-20T07:15:30.204Z,11.25
2018-11-20T07:16:30.279Z,11.25
2018-11-20T07:17:31.092Z,11.25
2018-11-20T07:18:30.581Z,11.25
2018-11-20T07:19:30.751Z,11.25
2018-11-20T07:20:30.934Z,16.88
2018-11-20T07:21:31.107Z,16.88
2018-11-20T07:22:31.351Z,16.88
2018-11-20T07:23:31.465Z,16.88
2018-11-20T07:24:31.641Z,16.88
2018-11-20T07:25:31.816Z,16.88
2018-11-20T07:26:32.000Z,16.88
2018-11-20T07:27:32.174Z,16.88
2018-11-20T07:28:32.354Z,22.50
2018-11-20T07:29:32.585Z,22.50
2018-11-20T07:30:32.786Z,22.50
2018-11-20T07:31:32.949Z,22.50
2018-11-20T07:32:33.071Z,16.88
2018-11-20T07:33:33.259Z,16.88
2018-11-20T07:34:33.432Z,22.50
2018-11-20T07:35:33.612Z,16.88
2018-11-20T07:36:33.795Z,22.50
2018-11-20T07:37:33.970Z,22.50
2018-11-20T07:38:34.169Z,22.50
2018-11-20T07:39:34.337Z,22.50
2018-11-20T07:40:34.520Z,22.50
2018-11-20T07:41:34.696Z,22.50
2018-11-20T07:42:34.878Z,16.88
2018-11-20T07:43:35.158Z,11.25
2018-11-20T07:44:35.246Z,11.25
2018-11-20T07:45:35.422Z,11.25
2018-11-20T07:46:35.599Z,11.25
2018-11-20T07:47:35.781Z,16.88
2018-11-20T07:48:35.960Z,11.25
2018-11-20T07:49:36.138Z,16.88
2018-11-20T07:50:36.320Z,16.88
2018-11-20T07:51:36.669Z,16.88
2018-11-20T07:52:36.676Z,16.88
2018-11-20T07:53:36.858Z,11.25
2018-11-20T07:54:37.028Z,11.25
2018-11-20T07:55:37.271Z,11.25
2018-11-20T07:56:37.387Z,11.25
2018-11-20T07:57:37.585Z,11.25
2018-11-20T07:58:37.756Z,5.63
2018-11-20T07:59:37.943Z,5.63
2018-11-20T08:00:38.121Z,5.63
2018-11-20T08:01:38.348Z,5.63
2018-11-20T08:02:38.478Z,5.63
2018-11-20T08:03:38.658Z,5.63
2018-11-20T08:04:38.837Z,5.63
2018-11-20T08:05:39.018Z,5.63
2018-11-20T08:06:39.195Z,5.63
2018-11-20T08:07:39.378Z,11.25
2018-11-20T08:08:39.621Z,11.25
2018-11-20T08:09:39.785Z,11.25
2018-11-20T08:10:39.917Z,11.25
2018-11-20T08:11:40.102Z,16.88
2018-11-20T08:12:40.270Z,16.88
2018-11-20T08:13:40.452Z,16.88
2018-11-20T08:14:40.629Z,22.50
2018-11-20T08:15:40.909Z,22.50
2018-11-20T08:16:40.992Z,22.50
2018-11-20T08:17:41.173Z,22.50
2018-11-20T08:18:41.356Z,16.88
2018-11-20T08:19:41.529Z,16.88
2018-11-20T08:20:41.706Z,16.88
2018-11-20T08:21:41.889Z,16.88
2018-11-20T08:22:42.067Z,22.50
2018-11-20T08:23:42.257Z,22.50
2018-11-20T08:24:42.439Z,22.50
2018-11-20T08:25:42.662Z,22.50
2018-11-20T08:26:42.921Z,22.50
2018-11-20T08:27:42.976Z,22.50
2018-11-20T08:28:43.158Z,28.13
2018-11-20T08:29:43.334Z,28.13
2018-11-20T08:30:43.509Z,28.13
2018-11-20T08:31:43.682Z,33.75
2018-11-20T08:32:43.865Z,33.75
2018-11-20T08:33:44.053Z,39.38
2018-11-20T08:34:44.223Z,39.38
2018-11-20T08:35:44.402Z,39.38
2018-11-20T08:36:44.585Z,39.38
2018-11-20T08:37:44.766Z,33.75
2018-11-20T08:38:44.943Z,33.75
2018-11-20T08:39:45.128Z,45.00
2018-11-20T08:40:45.308Z,45.00
2018-11-20T08:41:45.485Z,39.38
2018-11-20T08:42:45.668Z,45.00
2018-11-20T08:43:45.862Z,50.63
2018-11-20T08:44:46.039Z,56.25
2018-11-20T08:45:46.213Z,50.63
2018-11-20T08:46:46.396Z,50.63
2018-11-20T08:47:46.682Z,56.25
2018-11-20T08:48:46.755Z,56.25
2018-11-20T08:49:46.934Z,56.25
2018-11-20T08:50:47.115Z,61.88
2018-11-20T08:51:47.298Z,61.88
2018-11-20T08:52:47.531Z,61.88
2018-11-20T08:53:47.749Z,56.25
2018-11-20T08:54:47.837Z,61.88
2018-11-20T08:55:48.018Z,73.13
2018-11-20T08:56:48.194Z,73.13
2018-11-20T08:57:48.384Z,67.50
2018-11-20T08:58:48.560Z,67.50
2018-11-20T08:59:48.740Z,73.13
2018-11-20T09:00:48.921Z,78.75
2018-11-20T09:01:49.100Z,78.75
2018-11-20T09:02:49.363Z,78.75
2018-11-20T09:03:49.455Z,78.75
2018-11-20T09:04:49.633Z,95.63
2018-11-20T09:05:49.814Z,106.88
2018-11-20T09:06:49.993Z,101.25
2018-11-20T09:07:50.181Z,101.25
2018-11-20T09:08:50.355Z,106.88
2018-11-20T09:09:50.572Z,106.88
2018-11-20T09:10:50.721Z,106.88
2018-11-20T09:11:50.898Z,106.88
2018-11-20T09:12:51.080Z,106.88
2018-11-20T09:13:51.257Z,95.63
2018-11-20T09:14:51.447Z,95.63
2018-11-20T09:15:51.624Z,101.25
2018-11-20T09:16:51.808Z,101.25
2018-11-20T09:17:52.031Z,101.25
2018-11-20T09:18:52.166Z,106.88
2018-11-20T09:19:52.398Z,106.88
2018-11-20T09:20:52.532Z,101.25
2018-11-20T09:21:52.707Z,95.63
2018-11-20T09:22:52.888Z,90.00
2018-11-20T09:23:53.067Z,90.00
2018-11-20T09:24:53.238Z,84.38
2018-11-20T09:25:53.501Z,84.38
2018-11-20T09:26:53.608Z,84.38
2018-11-20T09:27:53.812Z,78.75
2018-11-20T09:28:53.965Z,73.13
2018-11-20T09:29:54.147Z,78.75
2018-11-20T09:30:54.327Z,78.75
2018-11-20T09:31:54.511Z,73.13
2018-11-20T09:32:54.699Z,61.88
2018-11-20T09:33:54.884Z,67.50
2018-11-20T09:34:55.146Z,73.13
2018-11-20T09:35:55.245Z,73.13
2018-11-20T09:36:55.429Z,78.75
2018-11-20T09:37:55.603Z,73.13
2018-11-20T09:38:55.783Z,73.13
2018-11-20T09:39:55.960Z,73.13
2018-11-20T09:40:56.144Z,84.38
2018-11-20T09:41:56.328Z,78.75
2018-11-20T09:42:56.511Z,73.13
2018-11-20T09:43:56.692Z,73.13
2018-11-20T09:44:56.878Z,73.13
2018-11-20T09:45:57.052Z,67.50
2018-11-20T09:46:57.238Z,73.13
2018-11-20T09:47:57.418Z,90.00
2018-11-20T09:48:57.588Z,78.75
2018-11-20T09:49:57.768Z,78.75
2018-11-20T09:50:57.944Z,67.50
2018-11-20T09:51:58.127Z,67.50
2018-11-20T09:52:58.357Z,61.88
2018-11-20T09:53:58.485Z,56.25
2018-11-20T09:54:58.664Z,56.25
2018-11-20T09:55:58.841Z,61.88
2018-11-20T09:56:59.016Z,61.88
2018-11-20T09:57:59.195Z,56.25
2018-11-20T09:58:59.396Z,67.50
2018-11-20T09:59:59.692Z,56.25
2018-11-20T10:00:59.735Z,56.25
2018-11-20T10:01:59.920Z,56.25
2018-11-20T10:03:00.103Z,56.25
2018-11-20T10:04:00.280Z,61.88
2018-11-20T10:05:00.461Z,56.25
2018-11-20T10:06:00.655Z,56.25
2018-11-20T10:07:00.847Z,61.88
2018-11-20T10:08:01.020Z,61.88
2018-11-20T10:09:01.206Z,67.50
2018-11-20T10:10:01.383Z,67.50
2018-11-20T10:11:01.579Z,61.88
2018-11-20T10:12:01.740Z,56.25
2018-11-20T10:13:01.923Z,56.25
2018-11-20T10:14:02.198Z,56.25
2018-11-20T10:15:02.548Z,56.25
2018-11-20T10:16:02.447Z,50.63
2018-11-20T10:17:02.645Z,56.25
2018-11-20T10:18:02.837Z,61.88
2018-11-20T10:19:02.998Z,61.88
2018-11-20T10:20:03.181Z,56.25
2018-11-20T10:21:03.363Z,50.63
2018-11-20T10:22:03.555Z,50.63
2018-11-20T10:23:03.726Z,50.63
2018-11-20T10:24:03.898Z,56.25
2018-11-20T10:25:04.186Z,56.25
2018-11-20T10:26:04.287Z,61.88
2018-11-20T10:27:04.435Z,61.88
2018-11-20T10:28:04.621Z,73.13
2018-11-20T10:29:04.805Z,78.75
2018-11-20T10:30:04.989Z,73.13
2018-11-20T10:31:05.165Z,73.13
2018-11-20T10:32:05.342Z,67.50
2018-11-20T10:33:05.526Z,73.13
2018-11-20T10:34:05.725Z,73.13
2018-11-20T10:35:05.881Z,67.50
2018-11-20T10:36:06.065Z,78.75
2018-11-20T10:37:06.239Z,78.75
2018-11-20T10:38:06.418Z,90.00
2018-11-20T10:39:06.604Z,84.38
2018-11-20T10:40:06.782Z,78.75
2018-11-20T10:41:06.964Z,95.63
2018-11-20T10:42:07.172Z,90.00
2018-11-20T10:43:07.326Z,78.75
2018-11-20T10:44:07.507Z,78.75
2018-11-20T10:45:07.690Z,67.50
2018-11-20T10:46:07.943Z,61.88
2018-11-20T10:47:08.066Z,61.88
2018-11-20T10:48:08.239Z,67.50
2018-11-20T10:49:08.420Z,73.13
2018-11-20T10:50:08.600Z,73.13
2018-11-20T10:51:08.820Z,84.38
2018-11-20T10:52:08.962Z,90.00
2018-11-20T10:53:09.143Z,90.00
2018-11-20T10:54:09.327Z,84.38
2018-11-20T10:55:09.508Z,84.38
2018-11-20T10:56:09.686Z,84.38
2018-11-20T10:57:09.869Z,84.38
2018-11-20T10:58:10.045Z,78.75
2018-11-20T10:59:10.227Z,73.13
2018-11-20T11:00:10.404Z,78.75
2018-11-20T11:01:10.576Z,73.13
2018-11-20T11:02:10.758Z,61.88
2018-11-20T11:03:10.938Z,56.25
2018-11-20T11:04:11.165Z,56.25
2018-11-20T11:05:11.291Z,61.88
2018-11-20T11:06:11.510Z,67.50
2018-11-20T11:07:12.028Z,73.13
2018-11-20T11:08:11.981Z,73.13
2018-11-20T11:09:12.012Z,78.75
2018-11-20T11:10:12.189Z,73.13
2018-11-20T11:11:12.380Z,73.13
2018-11-20T11:12:12.653Z,61.88
2018-11-20T11:13:12.739Z,56.25
2018-11-20T11:14:12.928Z,67.50
2018-11-20T11:15:13.098Z,61.88
2018-11-20T11:16:13.279Z,56.25
2018-11-20T11:17:13.469Z,61.88
2018-11-20T11:18:13.682Z,61.88
2018-11-20T11:19:13.809Z,67.50
2018-11-20T11:20:14.037Z,73.13
2018-11-20T11:21:14.179Z,84.38
2018-11-20T11:22:14.368Z,84.38
2018-11-20T11:23:14.540Z,84.38
2018-11-20T11:24:14.720Z,84.38
2018-11-20T11:25:14.901Z,84.38
2018-11-20T11:26:15.083Z,84.38
2018-11-20T11:27:15.267Z,84.38
2018-11-20T11:28:15.423Z,78.75
2018-11-20T11:29:15.624Z,73.13
2018-11-20T11:30:15.807Z,78.75
2018-11-20T11:31:16.002Z,78.75
2018-11-20T11:32:16.174Z,78.75
2018-11-20T11:33:16.361Z,84.38
2018-11-20T11:34:16.540Z,90.00
2018-11-20T11:35:16.723Z,95.63
2018-11-20T11:36:16.906Z,90.00
2018-11-20T11:37:17.093Z,95.63
2018-11-20T11:38:17.279Z,101.25
2018-11-20T11:39:17.453Z,101.25
2018-11-20T11:40:17.636Z,90.00
2018-11-20T11:41:17.810Z,84.38
2018-11-20T11:42:17.988Z,84.38
2018-11-20T11:43:18.162Z,95.63
2018-11-20T11:44:18.354Z,95.63
2018-11-20T11:45:18.533Z,95.63
2018-11-20T11:46:18.713Z,95.63
2018-11-20T11:47:18.893Z,95.63
2018-11-20T11:48:19.073Z,106.88
2018-11-20T11:49:19.250Z,106.88
2018-11-20T11:50:19.429Z,106.88
2018-11-20T11:51:19.612Z,101.25
2018-11-20T11:52:20.307Z,123.75
2018-11-20T11:53:19.978Z,123.75
2018-11-20T11:54:20.161Z,123.75
2018-11-20T11:55:20.332Z,118.13
2018-11-20T11:56:20.519Z,129.38
2018-11-20T11:57:20.691Z,106.88
2018-11-20T11:58:20.875Z,101.25
2018-11-20T11:59:21.056Z,106.88
2018-11-20T12:00:21.232Z,101.25
2018-11-20T12:01:21.413Z,101.25
